Time;durP1;ratioP1;P1;durP2;ratioP2;P2;SDS_P1;SDS_P2;PMS_P1;PMS_P2;Temp;Humidity;BMP_temperature;BMP_pressure;BME280_temperature;BME280_humidity;BME280_pressure;Samples;Min_cycle;Max_cycle;Signal;HPM_P1;HPM_P2
2023/06/15 05:00:26;;;;;;;6.23;5.63;;;18.90;97.20;;;;;;1727970;28;20250;-71
2023/06/15 05:01:17;;;;;;;6.10;5.50;;;18.90;97.20;;;;;;1727940;28;20200;-71
2023/06/15 05:02:09;;;;;;;6.53;5.93;;;19.00;97.20;;;;;;1729648;28;20192;-71
2023/06/15 05:03:00;;;;;;;7.00;5.80;;;19.00;97.20;;;;;;1732206;28;20215;-71
2023/06/15 05:03:54;;;;;;;6.37;5.77;;;19.00;97.20;;;;;;1733779;28;20279;-71
2023/06/15 05:04:46;;;;;;;6.38;5.78;;;19.10;97.20;;;;;;1734793;28;20234;-71
2023/06/15 05:05:38;;;;;;;7.70;5.05;;;19.20;97.20;;;;;;1729887;28;20192;-71
2023/06/15 05:06:28;;;;;;;9.63;6.18;;;19.20;97.20;;;;;;1727909;28;20540;-71
2023/06/15 05:07:20;;;;;;;10.13;5.30;;;19.20;97.20;;;;;;1728021;28;20223;-71
2023/06/15 05:08:12;;;;;;;5.95;5.40;;;19.20;97.20;;;;;;1729097;28;20204;-71
2023/06/15 05:09:05;;;;;;;8.10;5.93;;;19.30;97.20;;;;;;1728058;28;20203;-71
2023/06/15 05:09:55;;;;;;;6.32;5.45;;;19.30;97.20;;;;;;1727848;28;20192;-71
2023/06/15 05:10:47;;;;;;;6.80;5.10;;;19.40;97.20;;;;;;1727793;28;20228;-72
2023/06/15 05:11:38;;;;;;;7.65;5.40;;;19.40;97.20;;;;;;1727999;28;20204;-71
2023/06/15 05:12:30;;;;;;;8.13;5.13;;;19.40;97.20;;;;;;1727617;28;20200;-71
2023/06/15 05:13:21;;;;;;;7.47;6.20;;;19.50;97.20;;;;;;1727918;28;20210;-71
2023/06/15 05:14:13;;;;;;;7.10;5.50;;;19.50;97.20;;;;;;1727726;28;20227;-71
2023/06/15 05:15:05;;;;;;;6.15;5.50;;;19.50;97.20;;;;;;1727888;28;20201;-71
2023/06/15 05:15:58;;;;;;;6.38;5.78;;;19.60;97.20;;;;;;1727983;28;20612;-72
2023/06/15 05:16:49;;;;;;;9.18;5.60;;;19.60;97.20;;;;;;1727883;28;20650;-71
2023/06/15 05:17:40;;;;;;;5.90;5.40;;;19.60;97.20;;;;;;1721037;28;20557;-71
2023/06/15 05:18:31;;;;;;;6.50;5.25;;;19.70;97.20;;;;;;1722817;28;20271;-72
2023/06/15 05:19:24;;;;;;;9.03;5.67;;;19.70;97.20;;;;;;1721181;28;20201;-71
2023/06/15 05:20:15;;;;;;;6.43;5.32;;;19.80;97.20;;;;;;1721076;28;20267;-71
2023/06/15 05:21:07;;;;;;;5.55;5.05;;;19.80;97.20;;;;;;1721154;28;20586;-72
2023/06/15 05:21:59;;;;;;;5.80;5.30;;;19.80;97.20;;;;;;1720829;28;20355;-71
2023/06/15 05:22:51;;;;;;;7.15;5.80;;;19.90;97.20;;;;;;1721162;28;20197;-71
2023/06/15 05:23:41;;;;;;;10.98;5.68;;;19.90;97.20;;;;;;1721097;28;20229;-72
2023/06/15 05:24:34;;;;;;;8.63;5.30;;;20.00;97.20;;;;;;1721161;28;20201;-71
2023/06/15 05:25:24;;;;;;;6.35;5.70;;;20.00;97.20;;;;;;1721149;28;20198;-72
2023/06/15 05:26:17;;;;;;;5.33;4.83;;;20.10;97.20;;;;;;1721161;28;20212;-70
2023/06/15 05:27:08;;;;;;;7.00;4.88;;;20.10;97.20;;;;;;1723496;28;20611;-71
2023/06/15 05:28:00;;;;;;;11.65;5.90;;;20.20;97.20;;;;;;1727755;28;20203;-72
2023/06/15 05:28:51;;;;;;;9.82;5.82;;;20.20;97.20;;;;;;1725820;28;20200;-70
2023/06/15 05:29:43;;;;;;;12.13;5.57;;;20.20;97.20;;;;;;1727285;28;20196;-69
2023/06/15 05:30:34;;;;;;;6.28;5.68;;;20.30;97.20;;;;;;1727265;28;20713;-70
2023/06/15 05:31:27;;;;;;;6.50;5.70;;;20.30;97.20;;;;;;1727555;28;20749;-69
2023/06/15 05:32:18;;;;;;;8.50;5.50;;;20.30;97.20;;;;;;1726776;28;20655;-70
2023/06/15 05:33:10;;;;;;;7.53;5.63;;;20.40;97.20;;;;;;1727118;28;20601;-68
2023/06/15 05:34:01;;;;;;;14.10;5.40;;;20.40;97.20;;;;;;1727410;28;20812;-69
2023/06/15 05:34:53;;;;;;;10.73;6.03;;;20.50;97.20;;;;;;1727398;28;20680;-69
2023/06/15 05:35:43;;;;;;;7.35;5.15;;;20.50;97.20;;;;;;1720727;28;20692;-69
2023/06/15 05:36:35;;;;;;;11.47;5.20;;;20.60;97.20;;;;;;1720713;28;20567;-69
2023/06/15 05:37:26;;;;;;;13.27;6.65;;;20.60;97.20;;;;;;1724267;28;20200;-70
2023/06/15 05:38:20;;;;;;;8.30;5.80;;;20.70;97.20;;;;;;1720675;28;20225;-69
2023/06/15 05:39:11;;;;;;;11.02;5.43;;;20.70;97.20;;;;;;1721517;28;20862;-70
2023/06/15 05:40:05;;;;;;;6.47;4.88;;;20.70;97.20;;;;;;1721626;28;20827;-70
2023/06/15 05:40:55;;;;;;;8.45;5.40;;;20.80;97.20;;;;;;1720731;28;20730;-70
2023/06/15 05:41:47;;;;;;;7.93;5.90;;;20.80;97.20;;;;;;1720199;28;20562;-70
2023/06/15 05:42:38;;;;;;;13.30;6.10;;;20.80;97.20;;;;;;1720872;28;20201;-70
2023/06/15 05:43:30;;;;;;;6.90;6.20;;;20.80;97.20;;;;;;1720426;28;20292;-70
2023/06/15 05:44:21;;;;;;;7.60;5.88;;;20.90;97.20;;;;;;1720657;28;20216;-70
2023/06/15 05:45:13;;;;;;;6.45;5.60;;;20.90;97.20;;;;;;1721539;28;20251;-70
2023/06/15 05:46:03;;;;;;;10.10;6.20;;;20.90;97.20;;;;;;1720612;28;20205;-70
2023/06/15 05:46:56;;;;;;;11.70;5.60;;;20.90;97.20;;;;;;1720830;28;20280;-70
2023/06/15 05:47:47;;;;;;;8.30;5.45;;;20.90;97.20;;;;;;1720455;28;20197;-70
2023/06/15 05:48:39;;;;;;;7.00;5.60;;;21.00;97.20;;;;;;1720768;28;20201;-69
2023/06/15 05:49:30;;;;;;;9.30;6.15;;;20.90;97.20;;;;;;1720572;28;20224;-70
2023/06/15 05:50:21;;;;;;;6.20;5.60;;;20.90;97.20;;;;;;1727468;28;20231;-71
2023/06/15 05:51:12;;;;;;;11.13;5.72;;;21.00;97.20;;;;;;1733567;28;20203;-70
2023/06/15 05:52:04;;;;;;;7.70;5.00;;;21.00;97.20;;;;;;1726565;28;20204;-70
2023/06/15 05:52:55;;;;;;;9.93;6.28;;;21.00;97.20;;;;;;1727021;28;20443;-69
2023/06/15 05:53:47;;;;;;;5.67;5.07;;;21.00;97.20;;;;;;1727343;28;20206;-69
2023/06/15 05:54:38;;;;;;;7.70;5.28;;;21.00;97.20;;;;;;1727189;28;20263;-69
2023/06/15 05:55:30;;;;;;;13.53;6.13;;;21.00;97.20;;;;;;1727314;28;20200;-71
2023/06/15 05:56:21;;;;;;;12.15;5.55;;;21.00;97.20;;;;;;1727259;28;20242;-71
2023/06/15 05:57:12;;;;;;;14.37;5.60;;;21.00;97.20;;;;;;1727175;28;20203;-71
2023/06/15 05:58:03;;;;;;;9.85;6.80;;;21.00;97.20;;;;;;1727131;28;20505;-71
2023/06/15 05:58:55;;;;;;;6.23;5.10;;;21.10;97.20;;;;;;1727393;28;20227;-70
2023/06/15 05:59:46;;;;;;;8.70;5.70;;;21.10;97.20;;;;;;1727371;28;20201;-71
2023/06/15 06:00:38;;;;;;;7.95;5.82;;;21.10;97.20;;;;;;1727125;28;20690;-71
2023/06/15 06:01:29;;;;;;;8.52;5.68;;;21.10;97.20;;;;;;1725899;28;20208;-71
2023/06/15 06:02:23;;;;;;;6.23;5.63;;;21.10;97.20;;;;;;1720084;28;20193;-71
2023/06/15 06:03:14;;;;;;;7.07;5.55;;;21.10;97.20;;;;;;1720275;28;20205;-70
2023/06/15 06:04:06;;;;;;;14.13;6.90;;;21.10;97.20;;;;;;1722789;28;20663;-71
2023/06/15 06:04:57;;;;;;;10.40;5.60;;;21.10;97.20;;;;;;1725763;28;20440;-71
2023/06/15 06:05:50;;;;;;;13.70;6.13;;;21.10;97.20;;;;;;1726901;28;20196;-70
2023/06/15 06:06:41;;;;;;;12.23;6.32;;;21.10;97.20;;;;;;1727200;28;20462;-70
2023/06/15 06:07:33;;;;;;;19.92;6.68;;;21.10;97.20;;;;;;1727088;28;20608;-70
2023/06/15 06:08:24;;;;;;;10.75;6.10;;;21.10;97.20;;;;;;1726876;28;20212;-71
2023/06/15 06:09:18;;;;;;;27.48;6.60;;;21.10;97.20;;;;;;1723573;28;20208;-69
2023/06/15 06:10:09;;;;;;;19.98;6.15;;;21.20;97.20;;;;;;1721872;28;20212;-71
2023/06/15 06:11:03;;;;;;;16.38;5.60;;;21.20;97.20;;;;;;1720084;28;20229;-70
2023/06/15 06:11:56;;;;;;;19.85;6.28;;;21.20;97.20;;;;;;1723621;28;20197;-70
2023/06/15 06:12:48;;;;;;;21.52;6.53;;;21.20;97.20;;;;;;1727210;28;20198;-71
2023/06/15 06:13:39;;;;;;;11.40;6.28;;;21.20;97.20;;;;;;1724679;28;20200;-70
2023/06/15 06:14:31;;;;;;;17.83;5.70;;;21.20;97.20;;;;;;1720558;28;20259;-71
2023/06/15 06:15:23;;;;;;;28.58;6.80;;;21.30;97.20;;;;;;1720735;28;20456;-70
2023/06/15 06:16:21;;;;;;;23.77;7.70;;;21.30;97.20;;;;;;1720603;28;20635;-69
2023/06/15 06:17:13;;;;;;;32.97;9.20;;;21.30;97.20;;;;;;1721623;28;20201;-70
2023/06/15 06:18:08;;;;;;;40.55;9.65;;;21.30;97.20;;;;;;1720483;28;20247;-71
2023/06/15 06:18:59;;;;;;;42.03;9.10;;;21.30;97.20;;;;;;1720685;28;20273;-71
2023/06/15 06:19:52;;;;;;;46.85;7.65;;;21.30;97.20;;;;;;1720559;28;20565;-70
2023/06/15 06:20:43;;;;;;;39.20;8.18;;;21.30;97.20;;;;;;1720464;28;20232;-71
2023/06/15 06:21:35;;;;;;;27.55;7.45;;;21.30;97.20;;;;;;1721001;28;20201;-71
2023/06/15 06:22:25;;;;;;;22.55;7.13;;;21.40;97.20;;;;;;1726270;28;20200;-70
2023/06/15 06:23:17;;;;;;;31.53;7.90;;;21.40;97.20;;;;;;1727251;28;20204;-71
2023/06/15 06:24:08;;;;;;;19.85;7.22;;;21.40;97.20;;;;;;1727214;28;20581;-70
2023/06/15 06:25:00;;;;;;;13.23;5.65;;;21.40;97.20;;;;;;1727520;28;20615;-71
2023/06/15 06:25:51;;;;;;;18.60;7.20;;;21.40;97.20;;;;;;1727308;28;20204;-71
2023/06/15 06:26:43;;;;;;;32.50;8.33;;;21.40;97.20;;;;;;1725737;28;20204;-71
2023/06/15 06:27:34;;;;;;;14.60;7.38;;;21.40;97.20;;;;;;1722567;28;20209;-70
2023/06/15 06:28:26;;;;;;;41.83;8.77;;;21.40;97.20;;;;;;1721466;28;20201;-69
2023/06/15 06:29:17;;;;;;;37.58;8.10;;;21.40;97.20;;;;;;1734048;28;20208;-70
2023/06/15 06:30:09;;;;;;;47.50;8.20;;;21.40;97.20;;;;;;1734203;28;20199;-71
2023/06/15 06:31:00;;;;;;;32.72;8.75;;;21.50;97.20;;;;;;1729497;28;20231;-70
2023/06/15 06:31:51;;;;;;;49.03;10.07;;;21.50;97.20;;;;;;1726706;28;20193;-74
2023/06/15 06:32:42;;;;;;;18.55;8.25;;;21.50;97.20;;;;;;1729554;28;20204;-70
2023/06/15 06:33:37;;;;;;;25.57;9.13;;;21.50;97.20;;;;;;1733947;28;20449;-69
2023/06/15 06:34:27;;;;;;;19.45;7.63;;;21.50;97.20;;;;;;1732451;28;20204;-74
2023/06/15 06:35:19;;;;;;;43.37;9.90;;;21.50;97.20;;;;;;1727357;28;20262;-72
2023/06/15 06:36:10;;;;;;;33.47;10.20;;;21.50;97.20;;;;;;1727237;28;20709;-72
2023/06/15 06:37:02;;;;;;;25.57;8.87;;;21.50;97.20;;;;;;1727755;28;20678;-68
2023/06/15 06:37:53;;;;;;;42.92;11.10;;;21.50;97.20;;;;;;1727034;28;20447;-69
2023/06/15 06:38:44;;;;;;;21.27;9.00;;;21.60;97.20;;;;;;1727409;28;20207;-70
2023/06/15 06:39:35;;;;;;;7.07;6.03;;;21.60;97.20;;;;;;1727397;28;20201;-70
2023/06/15 06:40:27;;;;;;;6.83;6.20;;;21.60;97.20;;;;;;1727229;28;20200;-69
2023/06/15 06:41:17;;;;;;;9.10;5.95;;;21.60;97.20;;;;;;1726786;28;20526;-68
2023/06/15 06:42:10;;;;;;;24.47;9.37;;;21.50;97.20;;;;;;1726593;28;20630;-68
2023/06/15 06:43:00;;;;;;;53.60;10.88;;;21.50;97.20;;;;;;1727065;28;20331;-69
2023/06/15 06:43:52;;;;;;;25.70;8.30;;;21.50;97.20;;;;;;1727114;28;20193;-68
2023/06/15 06:44:43;;;;;;;23.15;9.15;;;21.50;97.20;;;;;;1727050;28;20234;-71
2023/06/15 06:45:35;;;;;;;11.00;6.67;;;21.50;97.20;;;;;;1727276;28;20192;-69
2023/06/15 06:46:26;;;;;;;40.28;10.65;;;21.50;97.20;;;;;;1727197;28;20254;-68
2023/06/15 06:47:17;;;;;;;16.90;7.10;;;21.50;97.20;;;;;;1727033;28;20201;-69
2023/06/15 06:48:08;;;;;;;27.42;9.45;;;21.50;97.20;;;;;;1727103;28;20456;-69
2023/06/15 06:49:01;;;;;;;42.43;10.50;;;21.50;97.20;;;;;;1727181;28;20199;-71
2023/06/15 06:49:52;;;;;;;26.35;10.55;;;21.60;97.20;;;;;;1726402;28;20203;-71
2023/06/15 06:50:44;;;;;;;41.60;11.10;;;21.60;97.20;;;;;;1726848;28;20215;-71
2023/06/15 06:51:36;;;;;;;19.85;7.85;;;21.60;97.20;;;;;;1727122;28;20463;-71
2023/06/15 06:52:27;;;;;;;14.63;8.20;;;21.60;97.20;;;;;;1726626;28;20196;-71
2023/06/15 06:53:18;;;;;;;33.05;10.60;;;21.70;97.20;;;;;;1727120;28;20203;-69
2023/06/15 06:54:10;;;;;;;25.10;9.10;;;21.70;97.20;;;;;;1726987;28;20193;-69
2023/06/15 06:55:01;;;;;;;30.60;10.70;;;21.70;97.20;;;;;;1727037;28;20227;-69
2023/06/15 06:55:52;;;;;;;47.93;13.43;;;21.70;97.20;;;;;;1727210;28;20206;-69
2023/06/15 06:56:43;;;;;;;11.70;7.05;;;21.80;97.20;;;;;;1727248;28;20197;-70
2023/06/15 06:57:37;;;;;;;7.30;6.40;;;21.80;97.20;;;;;;1727166;28;20211;-69
2023/06/15 06:58:27;;;;;;;6.88;6.28;;;21.80;97.20;;;;;;1727124;28;20208;-69
2023/06/15 06:59:19;;;;;;;20.63;7.63;;;21.80;97.20;;;;;;1727235;28;20283;-74
2023/06/15 07:00:11;;;;;;;18.92;7.68;;;21.80;97.20;;;;;;1727088;28;20204;-69
2023/06/15 07:01:03;;;;;;;15.88;7.40;;;21.70;97.20;;;;;;1727180;28;20679;-69
2023/06/15 07:01:53;;;;;;;12.52;6.90;;;21.70;97.20;;;;;;1726631;28;20209;-70
2023/06/15 07:02:45;;;;;;;13.83;7.17;;;21.70;97.20;;;;;;1727176;28;20279;-70
2023/06/15 07:03:37;;;;;;;33.70;8.90;;;21.70;97.20;;;;;;1726983;28;20204;-69
2023/06/15 07:04:31;;;;;;;26.08;8.82;;;21.70;97.20;;;;;;1727074;28;20244;-70
2023/06/15 07:05:21;;;;;;;21.98;8.38;;;21.80;97.20;;;;;;1727191;28;20242;-69
2023/06/15 07:06:13;;;;;;;22.60;7.97;;;21.80;97.20;;;;;;1726088;28;20205;-69
2023/06/15 07:07:04;;;;;;;34.85;8.38;;;21.80;97.20;;;;;;1720509;28;20591;-69
2023/06/15 07:07:56;;;;;;;11.98;6.75;;;21.90;97.20;;;;;;1726984;28;20201;-69
2023/06/15 07:08:47;;;;;;;10.98;6.97;;;21.90;97.20;;;;;;1726963;28;20200;-69
2023/06/15 07:09:39;;;;;;;22.40;7.33;;;21.90;97.20;;;;;;1726197;28;20192;-69
2023/06/15 07:10:30;;;;;;;9.32;6.85;;;22.00;97.20;;;;;;1720440;28;20686;-69
2023/06/15 07:11:21;;;;;;;7.20;6.37;;;21.90;97.20;;;;;;1720727;28;20695;-70
2023/06/15 07:12:12;;;;;;;6.10;5.50;;;21.90;97.20;;;;;;1719824;28;20205;-69
2023/06/15 07:13:04;;;;;;;8.93;6.70;;;21.90;97.20;;;;;;1719702;28;20201;-69
2023/06/15 07:13:55;;;;;;;14.43;7.43;;;21.80;97.20;;;;;;1719666;28;20209;-69
2023/06/15 07:14:46;;;;;;;29.83;7.97;;;21.80;97.20;;;;;;1719800;28;20193;-69
2023/06/15 07:15:37;;;;;;;15.43;6.38;;;21.80;97.20;;;;;;1725817;28;20197;-70
2023/06/15 07:16:29;;;;;;;20.23;8.47;;;21.90;97.20;;;;;;1726349;28;20197;-71
2023/06/15 07:17:19;;;;;;;19.95;7.72;;;21.90;97.20;;;;;;1726677;28;20209;-70
2023/06/15 07:18:14;;;;;;;8.77;6.43;;;22.00;97.20;;;;;;1726796;28;20197;-69
2023/06/15 07:19:05;;;;;;;7.43;5.85;;;22.00;97.20;;;;;;1726574;28;20315;-70
2023/06/15 07:19:58;;;;;;;22.00;7.20;;;22.00;97.20;;;;;;1724290;28;20200;-69
2023/06/15 07:20:53;;;;;;;14.90;7.05;;;22.10;97.20;;;;;;1722024;28;21036;-70
2023/06/15 07:21:45;;;;;;;33.75;8.32;;;22.10;97.20;;;;;;1720699;28;20605;-70
2023/06/15 07:22:36;;;;;;;19.98;8.50;;;22.20;97.20;;;;;;1727306;28;20255;-69
2023/06/15 07:23:28;;;;;;;9.30;6.10;;;22.20;97.20;;;;;;1731862;28;20188;-68
2023/06/15 07:24:20;;;;;;;28.02;8.70;;;22.20;97.20;;;;;;1730284;28;20199;-69
2023/06/15 07:25:11;;;;;;;25.40;8.65;;;22.20;97.20;;;;;;1726201;28;20250;-71
2023/06/15 07:26:02;;;;;;;10.35;7.38;;;22.30;97.20;;;;;;1726834;28;20543;-68
2023/06/15 07:26:56;;;;;;;18.00;7.57;;;22.30;97.20;;;;;;1726659;28;20304;-68
2023/06/15 07:27:47;;;;;;;20.23;7.32;;;22.30;97.20;;;;;;1726503;28;20509;-68
2023/06/15 07:28:39;;;;;;;27.57;7.37;;;22.30;97.20;;;;;;1724419;28;20247;-68
2023/06/15 07:29:30;;;;;;;12.43;7.70;;;22.30;97.20;;;;;;1725533;28;20462;-68
2023/06/15 07:30:22;;;;;;;18.77;7.60;;;22.40;97.20;;;;;;1727893;28;20204;-68
2023/06/15 07:31:13;;;;;;;19.10;7.53;;;22.40;97.20;;;;;;1729716;28;20216;-68
2023/06/15 07:32:05;;;;;;;28.93;8.73;;;22.50;97.20;;;;;;1727276;28;20200;-68
2023/06/15 07:32:56;;;;;;;19.35;7.65;;;22.50;97.20;;;;;;1733518;28;20442;-68
2023/06/15 07:33:48;;;;;;;29.27;7.30;;;22.50;97.20;;;;;;1726986;28;20238;-68
2023/06/15 07:34:39;;;;;;;21.10;7.43;;;22.60;97.20;;;;;;1733218;28;20819;-68
2023/06/15 07:35:33;;;;;;;25.80;8.93;;;22.60;97.20;;;;;;1730228;28;20213;-67
2023/06/15 07:36:26;;;;;;;24.90;7.15;;;22.60;97.20;;;;;;1727149;28;20213;-67
2023/06/15 07:37:20;;;;;;;25.02;7.53;;;22.70;97.20;;;;;;1725948;28;20235;-68
2023/06/15 07:38:14;;;;;;;51.38;8.70;;;22.70;97.20;;;;;;1720136;28;20240;-67
2023/06/15 07:39:06;;;;;;;18.33;8.10;;;22.80;97.20;;;;;;1719698;28;20197;-68
2023/06/15 07:39:58;;;;;;;22.95;8.05;;;22.80;97.20;;;;;;1720024;28;20205;-68
2023/06/15 07:40:50;;;;;;;9.40;6.75;;;22.90;97.20;;;;;;1721016;28;20304;-68
2023/06/15 07:41:42;;;;;;;8.38;6.97;;;22.90;97.20;;;;;;1726595;28;20205;-71
2023/06/15 07:42:33;;;;;;;15.35;7.57;;;22.90;97.20;;;;;;1727055;28;20250;-68
2023/06/15 07:43:25;;;;;;;30.43;8.67;;;22.90;97.20;;;;;;1726746;28;20737;-70
2023/06/15 07:44:17;;;;;;;26.83;7.65;;;22.90;97.20;;;;;;1726868;28;20208;-68
2023/06/15 07:45:10;;;;;;;34.75;7.82;;;23.00;97.20;;;;;;1726992;28;20200;-68
2023/06/15 07:46:00;;;;;;;33.47;8.85;;;23.00;97.20;;;;;;1721432;28;20671;-68
2023/06/15 07:46:52;;;;;;;35.10;8.33;;;23.00;97.20;;;;;;1720155;28;20570;-68
2023/06/15 07:47:43;;;;;;;13.67;6.33;;;23.10;97.20;;;;;;1719936;28;20206;-67
2023/06/15 07:48:35;;;;;;;12.27;7.07;;;23.20;97.20;;;;;;1720400;28;20444;-67
2023/06/15 07:49:26;;;;;;;16.23;7.80;;;23.20;97.20;;;;;;1720151;28;21154;-67
2023/06/15 07:50:18;;;;;;;20.57;7.47;;;23.20;97.20;;;;;;1720195;28;20730;-68
2023/06/15 07:51:11;;;;;;;10.98;6.30;;;23.20;97.20;;;;;;1720247;28;20205;-68
2023/06/15 07:52:02;;;;;;;25.57;8.03;;;23.20;97.20;;;;;;1719753;28;20212;-68
2023/06/15 07:52:54;;;;;;;33.90;7.95;;;23.30;97.20;;;;;;1720292;28;20444;-70
2023/06/15 07:53:46;;;;;;;42.50;8.77;;;23.30;97.20;;;;;;1720158;28;20201;-70
2023/06/15 07:54:37;;;;;;;48.42;10.07;;;23.30;97.20;;;;;;1720435;28;20452;-70
2023/06/15 07:55:29;;;;;;;38.33;10.17;;;23.40;97.20;;;;;;1721215;28;20519;-70
2023/06/15 07:56:19;;;;;;;26.58;8.52;;;23.50;97.20;;;;;;1726317;28;20204;-70
2023/06/15 07:57:11;;;;;;;38.07;9.80;;;23.50;97.20;;;;;;1726053;28;20291;-70
2023/06/15 07:58:02;;;;;;;27.88;7.93;;;23.50;97.20;;;;;;1725619;28;20228;-70
2023/06/15 07:58:55;;;;;;;17.35;8.40;;;23.60;97.20;;;;;;1726282;28;20631;-70
2023/06/15 07:59:46;;;;;;;24.10;9.30;;;23.60;97.20;;;;;;1724643;28;20220;-70
2023/06/15 08:00:38;;;;;;;20.52;8.02;;;23.70;97.20;;;;;;1721145;28;20468;-70
2023/06/15 08:01:28;;;;;;;19.65;8.10;;;23.70;97.20;;;;;;1722122;28;20216;-70
2023/06/15 08:02:20;;;;;;;21.10;7.63;;;23.70;97.20;;;;;;1733502;28;20202;-70
2023/06/15 08:03:11;;;;;;;30.63;7.93;;;23.70;97.20;;;;;;1734056;28;20203;-69
2023/06/15 08:04:04;;;;;;;30.87;9.80;;;23.80;97.20;;;;;;1733915;28;20474;-69
2023/06/15 08:04:55;;;;;;;25.63;8.87;;;23.80;97.20;;;;;;1734341;28;20215;-70
2023/06/15 08:05:46;;;;;;;39.80;10.83;;;23.80;97.20;;;;;;1729097;28;20534;-69
2023/06/15 08:06:38;;;;;;;12.43;6.67;;;23.80;97.20;;;;;;1726924;28;20471;-69
2023/06/15 08:07:32;;;;;;;18.13;8.20;;;23.90;97.20;;;;;;1727420;28;20494;-69
2023/06/15 08:08:23;;;;;;;14.15;7.25;;;23.90;97.20;;;;;;1732631;28;20446;-69
2023/06/15 08:09:15;;;;;;;16.00;7.60;;;23.90;97.20;;;;;;1729296;28;20291;-69
2023/06/15 08:10:06;;;;;;;7.43;6.65;;;23.90;97.20;;;;;;1730557;28;20514;-69
2023/06/15 08:10:58;;;;;;;15.80;7.60;;;23.90;97.20;;;;;;1726391;28;20240;-69
2023/06/15 08:11:50;;;;;;;9.50;7.40;;;23.90;97.20;;;;;;1728946;28;20193;-69
2023/06/15 08:12:42;;;;;;;13.20;7.27;;;23.90;97.20;;;;;;1727949;28;20479;-69
2023/06/15 08:13:33;;;;;;;23.73;8.15;;;23.90;97.20;;;;;;1727520;28;20443;-69
2023/06/15 08:14:24;;;;;;;69.17;14.37;;;23.90;97.20;;;;;;1727114;28;20208;-69
2023/06/15 08:15:16;;;;;;;77.40;17.33;;;24.00;97.20;;;;;;1730787;28;20442;-69
2023/06/15 08:16:08;;;;;;;46.07;10.47;;;24.00;97.20;;;;;;1725935;28;20590;-69
2023/06/15 08:16:59;;;;;;;40.00;10.60;;;24.10;97.20;;;;;;1727381;28;20454;-69
2023/06/15 08:17:50;;;;;;;20.03;7.77;;;24.10;97.20;;;;;;1726078;28;20574;-69
2023/06/15 08:18:41;;;;;;;16.60;7.40;;;24.20;97.20;;;;;;1727455;28;20451;-70
2023/06/15 08:19:33;;;;;;;24.60;8.40;;;24.20;97.20;;;;;;1724802;28;20475;-69
2023/06/15 08:20:26;;;;;;;46.95;11.73;;;24.20;97.20;;;;;;1722548;28;20205;-69
2023/06/15 08:21:17;;;;;;;62.03;14.70;;;24.20;97.20;;;;;;1726711;28;20224;-69
2023/06/15 08:22:10;;;;;;;48.13;11.57;;;24.20;97.20;;;;;;1720132;28;20255;-69
2023/06/15 08:23:02;;;;;;;7.77;6.40;;;24.30;97.20;;;;;;1720393;28;20453;-69
2023/06/15 08:23:53;;;;;;;15.33;8.77;;;24.30;97.20;;;;;;1720646;28;20440;-69
2023/06/15 08:24:45;;;;;;;39.73;11.13;;;24.30;97.20;;;;;;1720864;28;20934;-70
2023/06/15 08:25:37;;;;;;;105.93;17.30;;;24.30;97.20;;;;;;1726661;28;20536;-70
2023/06/15 08:26:27;;;;;;;141.80;21.40;;;24.30;97.20;;;;;;1727068;28;20455;-70
2023/06/15 08:27:20;;;;;;;64.87;14.93;;;24.30;97.20;;;;;;1721355;28;20532;-69
2023/06/15 08:28:10;;;;;;;55.97;13.57;;;24.40;97.20;;;;;;1720610;28;20568;-70
2023/06/15 08:29:02;;;;;;;92.90;15.27;;;24.50;97.20;;;;;;1723731;28;20818;-69
2023/06/15 08:29:54;;;;;;;99.03;16.20;;;24.50;97.20;;;;;;1727357;28;20258;-69
2023/06/15 08:30:46;;;;;;;46.57;11.57;;;24.60;97.20;;;;;;1725964;28;20948;-69
2023/06/15 08:31:37;;;;;;;96.80;12.68;;;24.60;97.20;;;;;;1723575;28;20679;-69
2023/06/15 08:32:30;;;;;;;41.07;10.40;;;24.70;97.20;;;;;;1719286;28;20280;-68
2023/06/15 08:33:21;;;;;;;76.97;13.82;;;24.70;97.20;;;;;;1732653;28;20457;-69
2023/06/15 08:34:12;;;;;;;159.60;19.83;;;24.80;97.20;;;;;;1733975;28;20818;-69
2023/06/15 08:35:04;;;;;;;87.67;13.83;;;24.80;97.20;;;;;;1731171;28;20200;-69
2023/06/15 08:35:56;;;;;;;111.63;15.83;;;24.90;97.20;;;;;;1732963;28;20470;-71
2023/06/15 08:36:46;;;;;;;20.55;7.80;;;24.90;97.20;;;;;;1730159;28;20447;-69
2023/06/15 08:37:39;;;;;;;43.93;9.63;;;24.90;97.20;;;;;;1723157;28;20193;-69
2023/06/15 08:38:30;;;;;;;43.78;10.88;;;24.90;97.20;;;;;;1721218;28;20201;-69
2023/06/15 08:39:22;;;;;;;22.93;7.53;;;25.00;97.20;;;;;;1720400;28;20216;-69
2023/06/15 08:40:13;;;;;;;115.47;16.47;;;25.00;97.20;;;;;;1720042;28;20236;-69
2023/06/15 08:41:05;;;;;;;85.83;14.90;;;25.10;97.20;;;;;;1720156;28;20446;-68
2023/06/15 08:41:56;;;;;;;46.80;9.33;;;25.10;97.20;;;;;;1719833;28;20448;-68
2023/06/15 08:42:50;;;;;;;27.73;11.10;;;25.10;97.20;;;;;;1723730;28;20449;-69
2023/06/15 08:43:42;;;;;;;55.27;12.03;;;25.10;97.20;;;;;;1726679;28;20451;-69
2023/06/15 08:44:35;;;;;;;115.50;17.00;;;25.20;97.20;;;;;;1727257;28;20447;-69
2023/06/15 08:45:30;;;;;;;84.97;14.67;;;25.30;97.20;;;;;;1726810;28;20450;-69
2023/06/15 08:46:24;;;;;;;43.30;9.47;;;25.30;97.20;;;;;;1727396;28;20462;-69
2023/06/15 08:47:15;;;;;;;44.00;9.90;;;25.40;97.20;;;;;;1732426;28;20446;-69
2023/06/15 08:48:08;;;;;;;40.00;10.00;;;25.40;97.20;;;;;;1721818;28;20458;-69
2023/06/15 08:49:02;;;;;;;176.17;24.00;;;25.40;97.20;;;;;;1720509;28;20216;-69
2023/06/15 08:49:53;;;;;;;79.97;13.17;;;25.50;97.20;;;;;;1720489;28;20450;-69
2023/06/15 08:50:45;;;;;;;47.60;9.30;;;25.50;97.20;;;;;;1720235;28;20908;-69
2023/06/15 08:51:38;;;;;;;20.30;6.53;;;25.60;97.20;;;;;;1720158;28;20476;-69
2023/06/15 08:52:32;;;;;;;21.47;6.97;;;25.60;97.20;;;;;;1721879;28;20444;-77
2023/06/15 08:53:27;;;;;;;28.03;7.17;;;25.60;97.20;;;;;;1727128;28;20451;-73
2023/06/15 08:54:20;;;;;;;17.97;6.30;;;25.60;97.20;;;;;;1727122;28;20447;-72
2023/06/15 08:55:15;;;;;;;24.38;7.07;;;25.70;97.20;;;;;;1727165;28;20494;-72
2023/06/15 08:56:10;;;;;;;18.00;5.70;;;25.70;97.20;;;;;;1726214;28;20597;-72
2023/06/15 08:57:03;;;;;;;8.80;5.95;;;25.80;97.20;;;;;;1731917;28;20442;-71
2023/06/15 08:57:53;;;;;;;20.10;6.67;;;25.80;97.20;;;;;;1725308;28;20220;-76
2023/06/15 08:58:49;;;;;;;32.10;9.00;;;25.80;97.20;;;;;;1720486;28;20463;-71
2023/06/15 08:59:40;;;;;;;36.88;9.05;;;25.80;97.20;;;;;;1720341;28;20236;-71
2023/06/15 09:00:32;;;;;;;44.42;9.20;;;25.80;97.20;;;;;;1720348;28;20225;-72
2023/06/15 09:01:25;;;;;;;16.35;6.47;;;25.90;97.20;;;;;;1722358;28;20208;-72
2023/06/15 09:02:21;;;;;;;10.98;5.63;;;25.90;97.20;;;;;;1726313;28;20283;-71
2023/06/15 09:03:17;;;;;;;29.10;7.88;;;25.90;97.20;;;;;;1731662;28;20430;-71
2023/06/15 09:04:09;;;;;;;40.58;9.52;;;26.00;97.20;;;;;;1733931;28;20618;-71
2023/06/15 09:05:01;;;;;;;37.00;9.43;;;26.10;97.20;;;;;;1731534;28;20637;-72
2023/06/15 09:05:52;;;;;;;14.65;7.32;;;26.10;97.20;;;;;;1732360;28;20198;-72
2023/06/15 09:06:43;;;;;;;7.63;5.40;;;26.10;97.20;;;;;;1729939;28;20258;-71
2023/06/15 09:07:35;;;;;;;10.23;7.47;;;26.10;97.20;;;;;;1733965;28;20469;-71
2023/06/15 09:08:28;;;;;;;20.70;8.60;;;26.10;97.20;;;;;;1724483;28;20232;-72
2023/06/15 09:09:19;;;;;;;32.70;9.33;;;26.20;97.20;;;;;;1720199;28;20241;-71
2023/06/15 09:10:12;;;;;;;25.07;7.37;;;26.30;97.20;;;;;;1720019;28;21033;-72
2023/06/15 09:11:07;;;;;;;15.25;7.15;;;26.30;97.20;;;;;;1720341;28;20476;-72
2023/06/15 09:11:58;;;;;;;28.48;6.75;;;26.40;97.20;;;;;;1719849;28;20651;-71
2023/06/15 09:12:52;;;;;;;8.40;5.47;;;26.40;97.20;;;;;;1722789;28;20540;-71
2023/06/15 09:13:43;;;;;;;7.07;5.87;;;26.50;97.20;;;;;;1724490;28;20202;-71
2023/06/15 09:14:39;;;;;;;7.78;5.20;;;26.50;97.20;;;;;;1720260;28;20529;-71
2023/06/15 09:15:30;;;;;;;21.50;6.60;;;26.50;97.20;;;;;;1726986;28;20271;-73
2023/06/15 09:16:23;;;;;;;15.77;7.10;;;26.50;97.20;;;;;;1723795;28;20494;-71
2023/06/15 09:17:14;;;;;;;25.63;7.20;;;26.60;97.20;;;;;;1731986;28;20222;-71
2023/06/15 09:18:06;;;;;;;6.20;4.80;;;26.60;97.20;;;;;;1723389;28;20537;-71
2023/06/15 09:18:58;;;;;;;16.57;6.37;;;26.60;97.20;;;;;;1722057;28;20445;-72
2023/06/15 09:19:49;;;;;;;17.83;6.40;;;26.70;97.20;;;;;;1726500;28;20458;-71
2023/06/15 09:20:40;;;;;;;6.87;5.20;;;26.70;97.20;;;;;;1726816;28;20459;-72
2023/06/15 09:21:32;;;;;;;14.50;5.77;;;26.80;97.20;;;;;;1726332;28;20443;-72
2023/06/15 09:22:23;;;;;;;13.10;5.80;;;26.80;97.20;;;;;;1726511;28;20270;-71
2023/06/15 09:23:14;;;;;;;7.07;5.73;;;26.80;97.20;;;;;;1727312;28;20937;-72
2023/06/15 09:24:08;;;;;;;14.50;6.80;;;26.90;97.20;;;;;;1727015;28;20573;-72
2023/06/15 09:24:59;;;;;;;5.70;5.20;;;26.90;97.20;;;;;;1727336;28;20933;-71
2023/06/15 09:25:52;;;;;;;15.50;5.80;;;26.90;97.20;;;;;;1723938;28;20447;-71
2023/06/15 09:26:46;;;;;;;38.47;8.00;;;26.90;97.20;;;;;;1721043;28;20452;-71